Time;durP1;ratioP1;P1;durP2;ratioP2;P2;SDS_P1;SDS_P2;PMS_P1;PMS_P2;Temp;Humidity;BMP_temperature;BMP_pressure;BME280_temperature;BME280_humidity;BME280_pressure;Samples;Min_cycle;Max_cycle;Signal;HPM_P1;HPM_P2
2022/05/12 00:01:58;;;;;;;;;;;13.00;99.90;;;;;;5080279;27;38465;-57
2022/05/12 00:04:25;;;;;;;;;;;13.00;99.90;;;;;;5079830;27;39005;-57
2022/05/12 00:06:52;;;;;;;;;;;13.00;99.90;;;;;;5079337;27;39221;-57
2022/05/12 00:09:21;;;;;;;;;;;13.00;99.90;;;;;;5080198;27;37925;-57
2022/05/12 00:11:48;;;;;;;;;;;12.90;99.90;;;;;;5079243;27;35926;-57
2022/05/12 00:14:15;;;;;;;;;;;12.90;99.90;;;;;;5078576;27;36911;-57
2022/05/12 00:16:42;;;;;;;;;;;12.90;99.90;;;;;;5080371;27;37539;-57
2022/05/12 00:19:10;;;;;;;;;;;12.80;99.90;;;;;;5079315;27;37420;-57
2022/05/12 00:21:37;;;;;;;;;;;12.80;99.90;;;;;;5079849;27;36077;-57
2022/05/12 00:24:05;;;;;;;;;;;12.80;99.90;;;;;;5081361;27;35208;-58
2022/05/12 00:26:35;;;;;;;;;;;12.80;99.90;;;;;;5079495;27;36480;-57
2022/05/12 00:29:05;;;;;;;;;;;12.80;99.90;;;;;;5079307;27;39771;-57
2022/05/12 00:31:33;;;;;;;;;;;12.70;99.90;;;;;;5079079;27;36677;-56
2022/05/12 00:34:00;;;;;;;;;;;12.70;99.90;;;;;;5078418;27;37042;-57
2022/05/12 00:36:27;;;;;;;;;;;12.70;99.90;;;;;;5080836;27;38553;-57
2022/05/12 00:38:54;;;;;;;;;;;12.60;99.90;;;;;;5078984;27;38272;-57
2022/05/12 00:41:21;;;;;;;;;;;12.70;99.90;;;;;;5080000;27;37363;-57
2022/05/12 00:43:51;;;;;;;;;;;12.60;99.90;;;;;;5081690;27;37366;-57
2022/05/12 00:46:19;;;;;;;;;;;12.60;99.90;;;;;;5082180;27;38116;-57
2022/05/12 00:48:47;;;;;;;;;;;12.50;99.90;;;;;;5081915;27;38965;-57
2022/05/12 00:51:15;;;;;;;;;;;12.50;99.90;;;;;;5082748;27;38112;-57
2022/05/12 00:53:43;;;;;;;;;;;12.50;99.90;;;;;;5082720;27;35633;-57
2022/05/12 00:56:12;;;;;;;;;;;12.50;99.90;;;;;;5081648;27;38671;-58
2022/05/12 00:58:40;;;;;;;;;;;12.40;99.90;;;;;;5081327;27;36900;-57
2022/05/12 01:01:09;;;;;;;;;;;12.40;99.90;;;;;;5082173;27;36738;-57
2022/05/12 01:03:38;;;;;;;;;;;12.40;99.90;;;;;;5082308;27;37660;-57
2022/05/12 01:06:06;;;;;;;;;;;12.40;99.90;;;;;;5083038;27;39550;-57
2022/05/12 01:08:34;;;;;;;;;;;12.40;99.90;;;;;;5082369;27;38265;-57
2022/05/12 01:11:04;;;;;;;;;;;12.30;99.90;;;;;;5081543;27;38509;-58
2022/05/12 01:13:32;;;;;;;;;;;12.30;99.90;;;;;;5081774;27;35026;-57
2022/05/12 01:16:00;;;;;;;;;;;12.30;99.90;;;;;;5081440;27;38092;-57
2022/05/12 01:18:30;;;;;;;;;;;12.20;99.90;;;;;;5082187;27;38066;-57
2022/05/12 01:20:57;;;;;;;;;;;12.20;99.90;;;;;;5081227;27;37524;-57
2022/05/12 01:23:27;;;;;;;;;;;12.20;99.90;;;;;;5082127;27;36197;-57
2022/05/12 01:25:57;;;;;;;;;;;12.20;99.90;;;;;;5082054;27;38274;-57
2022/05/12 01:28:25;;;;;;;;;;;12.20;99.90;;;;;;5082961;27;38223;-58
2022/05/12 01:30:52;;;;;;;;;;;12.20;99.90;;;;;;5082970;27;36497;-57
2022/05/12 01:33:19;;;;;;;;;;;12.10;99.90;;;;;;5081073;27;37756;-58
2022/05/12 01:35:46;;;;;;;;;;;12.10;99.90;;;;;;5082425;27;37301;-57
2022/05/12 01:38:14;;;;;;;;;;;12.00;99.90;;;;;;5083038;27;38386;-58
2022/05/12 01:40:44;;;;;;;;;;;12.00;99.90;;;;;;5081584;27;36995;-57
2022/05/12 01:43:11;;;;;;;;;;;11.90;99.90;;;;;;5082024;27;35677;-57
2022/05/12 01:45:38;;;;;;;;;;;11.90;99.90;;;;;;5081748;27;37098;-57
2022/05/12 01:48:05;;;;;;;;;;;11.90;99.90;;;;;;5080944;27;38516;-57
2022/05/12 01:50:33;;;;;;;;;;;11.90;99.90;;;;;;5082599;27;37334;-57
2022/05/12 01:53:00;;;;;;;;;;;11.90;99.90;;;;;;5082040;27;36084;-57
2022/05/12 01:55:27;;;;;;;;;;;11.80;99.90;;;;;;5080023;27;37996;-57
2022/05/12 01:57:57;;;;;;;;;;;11.80;99.90;;;;;;5082301;27;36786;-58
2022/05/12 02:00:26;;;;;;;;;;;11.70;99.90;;;;;;5082030;27;37815;-57
2022/05/12 02:02:54;;;;;;;;;;;11.70;99.90;;;;;;5081509;27;36523;-57
2022/05/12 02:05:21;;;;;;;;;;;11.70;99.90;;;;;;5081302;27;41208;-57
2022/05/12 02:07:49;;;;;;;;;;;11.70;99.90;;;;;;5081900;27;36477;-57
2022/05/12 02:10:18;;;;;;;;;;;11.70;99.90;;;;;;5081660;27;38541;-58
2022/05/12 02:12:45;;;;;;;;;;;11.70;99.90;;;;;;5080833;27;35174;-57
2022/05/12 02:15:14;;;;;;;;;;;11.70;99.90;;;;;;5081051;27;39063;-57
2022/05/12 02:17:41;;;;;;;;;;;11.70;99.90;;;;;;5080441;27;38488;-57
2022/05/12 02:20:11;;;;;;;;;;;11.70;99.90;;;;;;5080919;27;31757;-57
2022/05/12 02:22:38;;;;;;;;;;;11.80;99.90;;;;;;5080690;27;37201;-57
2022/05/12 02:25:06;;;;;;;;;;;11.80;99.90;;;;;;5078622;27;37234;-57
2022/05/12 02:27:33;;;;;;;;;;;11.80;99.90;;;;;;5080349;27;36916;-57
2022/05/12 02:30:00;;;;;;;;;;;11.80;99.90;;;;;;5080931;27;37607;-57
2022/05/12 02:32:29;;;;;;;;;;;11.80;99.90;;;;;;5080728;27;36305;-57
2022/05/12 02:34:56;;;;;;;;;;;11.80;99.90;;;;;;5081075;27;38540;-57
2022/05/12 02:37:24;;;;;;;;;;;11.70;99.90;;;;;;5082160;27;39047;-57
2022/05/12 02:39:51;;;;;;;;;;;11.70;99.90;;;;;;5081092;27;37098;-57
2022/05/12 02:42:18;;;;;;;;;;;11.60;99.90;;;;;;5081306;27;36249;-57
2022/05/12 02:44:46;;;;;;;;;;;11.70;99.90;;;;;;5081599;27;37313;-57
2022/05/12 02:47:13;;;;;;;;;;;11.70;99.90;;;;;;5081894;27;37977;-58
2022/05/12 02:49:42;;;;;;;;;;;11.60;99.90;;;;;;5080372;27;35729;-57
2022/05/12 02:52:09;;;;;;;;;;;11.60;99.90;;;;;;5081704;27;35218;-58
2022/05/12 02:54:37;;;;;;;;;;;11.60;99.90;;;;;;5080152;27;39300;-57
2022/05/12 02:57:05;;;;;;;;;;;11.60;99.90;;;;;;5079644;27;37744;-57
2022/05/12 02:59:32;;;;;;;;;;;11.60;99.90;;;;;;5078475;27;37048;-57
2022/05/12 03:02:01;;;;;;;;;;;11.60;99.90;;;;;;5079098;27;35251;-57
2022/05/12 03:04:28;;;;;;;;;;;11.60;99.90;;;;;;5080548;27;36677;-57
2022/05/12 03:06:59;;;;;;;;;;;11.50;99.90;;;;;;5079802;27;39845;-58
2022/05/12 03:09:26;;;;;;;;;;;11.60;99.90;;;;;;5081228;27;37353;-57
2022/05/12 03:11:53;;;;;;;;;;;11.60;99.90;;;;;;5080712;27;34876;-57
2022/05/12 03:14:20;;;;;;;;;;;11.60;99.90;;;;;;5081846;27;38932;-57
2022/05/12 03:16:53;;;;;;;;;;;11.60;99.90;;;;;;5079687;27;36926;-58
2022/05/12 03:19:23;;;;;;;;;;;11.60;99.90;;;;;;5043031;28;36575;-57
2022/05/12 03:21:50;;;;;;;;;;;11.60;99.90;;;;;;5042900;28;35303;-57
2022/05/12 03:24:19;;;;;;;;;;;11.50;99.90;;;;;;5042525;28;38615;-57
2022/05/12 03:26:47;;;;;;;;;;;11.50;99.90;;;;;;5042231;28;40173;-57
2022/05/12 03:29:14;;;;;;;;;;;11.50;99.90;;;;;;5042445;28;37171;-57
2022/05/12 03:31:41;;;;;;;;;;;11.50;99.90;;;;;;5041581;28;36237;-57
2022/05/12 03:34:08;;;;;;;;;;;11.60;99.90;;;;;;5042218;28;37999;-57
2022/05/12 03:36:39;;;;;;;;;;;11.60;99.90;;;;;;5041662;28;36616;-57
2022/05/12 03:39:07;;;;;;;;;;;11.60;99.90;;;;;;5042625;28;39732;-57
2022/05/12 03:41:38;;;;;;;;;;;11.50;99.90;;;;;;5042939;28;38344;-57
2022/05/12 03:46:50;;;;;;;;;;;11.60;99.90;;;;;;5044202;28;39364;-57
2022/05/12 03:49:17;;;;;;;;;;;11.50;99.90;;;;;;5043142;28;37793;-57
2022/05/12 03:51:45;;;;;;;;;;;11.50;99.90;;;;;;5043598;28;35140;-57
2022/05/12 03:54:12;;;;;;;;;;;11.50;99.90;;;;;;5042530;28;40692;-57
2022/05/12 03:56:42;;;;;;;;;;;11.50;99.90;;;;;;5042838;28;39680;-57
2022/05/12 03:59:09;;;;;;;;;;;11.50;99.90;;;;;;5042973;28;37386;-57
2022/05/12 04:01:36;;;;;;;;;;;11.50;99.90;;;;;;5042251;28;36793;-57
2022/05/12 04:04:06;;;;;;;;;;;11.50;99.90;;;;;;5040659;28;36592;-60
2022/05/12 04:06:33;;;;;;;;;;;11.60;99.90;;;;;;5042555;28;38031;-61
2022/05/12 04:09:02;;;;;;;;;;;11.50;99.90;;;;;;5043900;28;36306;-61
2022/05/12 04:11:30;;;;;;;;;;;11.60;99.90;;;;;;5043073;28;36165;-62
2022/05/12 04:13:59;;;;;;;;;;;11.60;99.90;;;;;;5042788;28;38996;-62
2022/05/12 04:16:28;;;;;;;;;;;11.70;99.90;;;;;;5043068;28;39284;-62
2022/05/12 04:18:55;;;;;;;;;;;11.70;99.90;;;;;;5076871;27;37333;-61
2022/05/12 04:21:22;;;;;;;;;;;11.80;99.90;;;;;;5083522;27;37511;-61
2022/05/12 04:23:50;;;;;;;;;;;11.90;99.90;;;;;;5083230;27;39257;-58
2022/05/12 04:26:17;;;;;;;;;;;12.00;99.90;;;;;;5084471;27;37774;-57
2022/05/12 04:28:47;;;;;;;;;;;12.10;99.90;;;;;;5083161;27;37409;-57
2022/05/12 04:31:16;;;;;;;;;;;12.20;99.90;;;;;;5083448;27;35034;-57
2022/05/12 04:36:27;;;;;;;;;;;12.30;99.90;;;;;;5084064;27;39234;-58
2022/05/12 04:38:54;;;;;;;;;;;12.40;99.90;;;;;;5083434;27;38289;-57
2022/05/12 04:41:21;;;;;;;;;;;12.50;99.90;;;;;;5082965;27;37689;-57
2022/05/12 04:43:48;;;;;;;;;;;12.60;99.90;;;;;;5084253;27;36453;-56
2022/05/12 04:46:17;;;;;;;;;;;12.70;99.90;;;;;;5083931;27;39981;-57
2022/05/12 04:48:44;;;;;;;;;;;12.80;99.90;;;;;;5082110;27;39367;-57
2022/05/12 04:51:11;;;;;;;;;;;12.90;99.90;;;;;;5082994;27;35277;-57
2022/05/12 04:53:38;;;;;;;;;;;13.00;99.90;;;;;;5083191;27;38534;-57
2022/05/12 04:56:05;;;;;;;;;;;13.10;99.90;;;;;;5082927;27;37951;-57
2022/05/12 04:58:32;;;;;;;;;;;13.20;99.90;;;;;;5082914;27;37292;-57
2022/05/12 05:00:59;;;;;;;;;;;13.30;99.90;;;;;;5082696;27;36521;-57
2022/05/12 05:03:28;;;;;;;;;;;13.40;99.90;;;;;;5082098;27;37934;-57
2022/05/12 05:05:55;;;;;;;;;;;13.50;99.90;;;;;;5081945;27;38938;-57
2022/05/12 05:08:23;;;;;;;;;;;13.60;99.90;;;;;;5082799;27;39095;-57
2022/05/12 05:10:51;;;;;;;;;;;13.70;99.90;;;;;;5082625;27;36242;-57
2022/05/12 05:13:19;;;;;;;;;;;13.90;99.90;;;;;;5083373;27;36502;-57
2022/05/12 05:15:46;;;;;;;;;;;14.00;99.90;;;;;;5081789;27;36671;-58
2022/05/12 05:18:14;;;;;;;;;;;14.20;99.90;;;;;;5082062;27;38366;-57
2022/05/12 05:20:44;;;;;;;;;;;14.30;99.90;;;;;;5080578;27;36649;-57
2022/05/12 05:23:11;;;;;;;;;;;14.40;99.90;;;;;;5082469;27;35845;-57
2022/05/12 05:25:38;;;;;;;;;;;14.60;99.90;;;;;;5082694;27;39000;-57
2022/05/12 05:28:06;;;;;;;;;;;14.70;99.90;;;;;;5082330;27;36747;-57
2022/05/12 05:30:33;;;;;;;;;;;14.90;99.90;;;;;;5081119;27;37155;-57
2022/05/12 05:33:00;;;;;;;;;;;15.10;99.90;;;;;;5083311;27;37659;-57
2022/05/12 05:35:28;;;;;;;;;;;15.40;99.90;;;;;;5082046;27;38109;-57
2022/05/12 05:37:56;;;;;;;;;;;15.70;99.90;;;;;;5081624;27;38226;-57
2022/05/12 05:40:25;;;;;;;;;;;16.00;99.90;;;;;;5079989;27;36908;-57
2022/05/12 05:42:53;;;;;;;;;;;16.10;99.90;;;;;;5079373;27;38702;-61
2022/05/12 05:45:20;;;;;;;;;;;16.30;99.80;;;;;;5080173;27;38728;-62
2022/05/12 05:47:48;;;;;;;;;;;16.40;98.90;;;;;;5080813;27;38435;-62
2022/05/12 05:50:21;;;;;;;;;;;16.50;98.50;;;;;;5081521;27;37274;-62
2022/05/12 05:55:35;;;;;;;;;;;16.70;97.70;;;;;;5079751;27;38942;-57
2022/05/12 05:58:02;;;;;;;;;;;16.80;97.80;;;;;;5080502;27;37914;-63
2022/05/12 06:00:31;;;;;;;;;;;17.00;97.00;;;;;;5080899;27;36817;-62
2022/05/12 06:02:58;;;;;;;;;;;17.10;97.20;;;;;;5079126;27;37522;-61
2022/05/12 06:05:27;;;;;;;;;;;17.20;97.10;;;;;;5079558;27;36631;-61
2022/05/12 06:07:54;;;;;;;;;;;17.00;97.90;;;;;;5079371;27;35953;-61
2022/05/12 06:10:22;;;;;;;;;;;17.00;97.70;;;;;;5079875;27;37309;-61
2022/05/12 06:12:51;;;;;;;;;;;17.00;97.90;;;;;;5079685;27;38121;-62
2022/05/12 06:15:18;;;;;;;;;;;17.00;96.90;;;;;;5079775;27;37808;-62
2022/05/12 06:17:45;;;;;;;;;;;17.10;97.50;;;;;;5078956;27;35949;-61
2022/05/12 06:20:12;;;;;;;;;;;17.10;97.30;;;;;;5081076;27;36867;-61
2022/05/12 06:22:40;;;;;;;;;;;17.10;97.00;;;;;;5081259;27;37469;-61
2022/05/12 06:25:08;;;;;;;;;;;17.30;96.60;;;;;;5081140;27;36754;-62
2022/05/12 06:27:36;;;;;;;;;;;17.40;96.10;;;;;;5080450;27;36982;-62
2022/05/12 06:30:05;;;;;;;;;;;17.40;96.00;;;;;;5080485;27;36398;-61
2022/05/12 06:32:32;;;;;;;;;;;17.40;95.90;;;;;;5081660;27;39496;-62
2022/05/12 06:35:00;;;;;;;;;;;17.40;96.40;;;;;;5080141;27;38597;-62
2022/05/12 06:37:27;;;;;;;;;;;17.30;95.80;;;;;;5080442;27;36125;-61
2022/05/12 06:39:54;;;;;;;;;;;17.30;95.90;;;;;;5080376;27;37438;-61
2022/05/12 06:42:21;;;;;;;;;;;17.20;95.70;;;;;;5079687;27;38111;-62
2022/05/12 06:44:48;;;;;;;;;;;17.20;95.20;;;;;;5079344;27;38559;-61
2022/05/12 06:47:17;;;;;;;;;;;17.20;95.90;;;;;;5078520;27;36874;-61
2022/05/12 06:49:49;;;;;;;;;;;17.20;95.60;;;;;;5079964;27;35734;-61
2022/05/12 06:52:16;;;;;;;;;;;17.20;95.60;;;;;;5080035;27;37665;-61
2022/05/12 06:54:44;;;;;;;;;;;17.20;95.40;;;;;;5079058;27;36696;-61
2022/05/12 06:57:12;;;;;;;;;;;17.20;95.10;;;;;;5080456;27;37144;-61
2022/05/12 06:59:39;;;;;;;;;;;17.20;95.30;;;;;;5080357;27;37746;-61
2022/05/12 07:02:07;;;;;;;;;;;17.20;95.10;;;;;;5080128;27;38317;-61
2022/05/12 07:04:35;;;;;;;;;;;17.20;96.10;;;;;;5080149;27;36717;-61
2022/05/12 07:07:03;;;;;;;;;;;17.20;95.20;;;;;;5075536;27;35881;-61
2022/05/12 07:09:31;;;;;;;;;;;17.20;95.90;;;;;;5078038;27;36529;-61
2022/05/12 07:11:58;;;;;;;;;;;17.20;95.60;;;;;;5081165;27;37510;-62
2022/05/12 07:14:25;;;;;;;;;;;17.30;95.80;;;;;;5080993;27;38067;-62
2022/05/12 07:16:53;;;;;;;;;;;17.30;95.40;;;;;;5081337;27;38459;-61
2022/05/12 07:19:20;;;;;;;;;;;17.40;94.80;;;;;;5080532;27;37179;-61
2022/05/12 07:27:18;;;;;;;;;;;17.40;95.20;;;;;;5079410;27;38409;-62
2022/05/12 07:29:46;;;;;;;;;;;17.50;94.90;;;;;;5078665;27;37224;-61
2022/05/12 07:32:14;;;;;;;;;;;17.50;95.60;;;;;;5072348;27;38456;-61
2022/05/12 07:34:42;;;;;;;;;;;17.60;94.30;;;;;;5077415;27;38567;-62
2022/05/12 07:37:10;;;;;;;;;;;17.50;93.60;;;;;;5078154;27;35993;-62
2022/05/12 07:39:38;;;;;;;;;;;17.40;95.10;;;;;;5077109;27;35186;-62
2022/05/12 07:42:05;;;;;;;;;;;17.30;93.70;;;;;;5076740;27;39167;-62
2022/05/12 07:44:35;;;;;;;;;;;17.30;94.50;;;;;;5076564;27;37912;-62
2022/05/12 07:47:06;;;;;;;;;;;17.40;94.20;;;;;;5076429;27;37525;-62
2022/05/12 07:49:35;;;;;;;;;;;17.50;92.60;;;;;;5077019;27;36113;-62
2022/05/12 07:52:03;;;;;;;;;;;17.50;92.70;;;;;;5077666;27;40260;-63
2022/05/12 07:54:32;;;;;;;;;;;17.60;93.30;;;;;;5077370;27;37752;-62
2022/05/12 07:57:00;;;;;;;;;;;17.70;93.20;;;;;;5077045;27;36650;-62
2022/05/12 07:59:29;;;;;;;;;;;17.80;93.40;;;;;;5077141;27;35909;-62
2022/05/12 08:01:58;;;;;;;;;;;17.80;91.90;;;;;;5076119;27;37881;-61
2022/05/12 08:04:25;;;;;;;;;;;17.90;90.70;;;;;;5077375;27;38533;-62
2022/05/12 08:06:52;;;;;;;;;;;18.00;91.30;;;;;;5076955;27;37283;-62
2022/05/12 08:09:19;;;;;;;;;;;18.00;92.20;;;;;;5076339;27;35000;-62
2022/05/12 08:11:48;;;;;;;;;;;18.00;91.50;;;;;;5076906;27;37522;-62
2022/05/12 08:14:15;;;;;;;;;;;18.10;92.10;;;;;;5077510;27;37815;-62
2022/05/12 08:16:43;;;;;;;;;;;18.20;91.50;;;;;;5076355;27;36106;-62
2022/05/12 08:19:10;;;;;;;;;;;18.30;91.30;;;;;;5075786;27;37835;-62
2022/05/12 08:21:37;;;;;;;;;;;18.40;90.70;;;;;;5075524;27;38581;-62
2022/05/12 08:24:04;;;;;;;;;;;18.50;89.80;;;;;;5074544;27;36861;-62
2022/05/12 08:26:31;;;;;;;;;;;18.60;90.70;;;;;;5077032;27;36920;-64
2022/05/12 08:29:00;;;;;;;;;;;18.70;88.30;;;;;;5077147;27;35028;-62
2022/05/12 08:31:30;;;;;;;;;;;18.80;89.70;;;;;;5078481;27;37813;-62
2022/05/12 08:33:58;;;;;;;;;;;18.90;89.20;;;;;;5075513;27;38735;-61
2022/05/12 08:36:27;;;;;;;;;;;19.10;84.70;;;;;;5075611;27;37752;-62
2022/05/12 08:38:54;;;;;;;;;;;19.20;86.70;;;;;;5074197;27;36952;-62
2022/05/12 08:41:30;;;;;;;;;;;19.30;83.50;;;;;;5076736;27;37425;-61
2022/05/12 08:43:59;;;;;;;;;;;19.40;84.10;;;;;;5076824;27;38010;-61
2022/05/12 08:46:31;;;;;;;;;;;19.40;82.30;;;;;;5077226;27;36742;-61
2022/05/12 08:49:02;;;;;;;;;;;19.40;84.20;;;;;;5077477;27;36678;-61
2022/05/12 08:51:31;;;;;;;;;;;19.40;83.40;;;;;;5077294;27;37603;-61
2022/05/12 08:53:59;;;;;;;;;;;19.10;78.20;;;;;;5076538;27;36527;-62
2022/05/12 08:56:27;;;;;;;;;;;18.90;82.60;;;;;;5077521;27;37742;-61
2022/05/12 08:58:55;;;;;;;;;;;18.70;82.10;;;;;;5077492;27;36424;-61
2022/05/12 09:01:24;;;;;;;;;;;18.60;84.10;;;;;;5071543;27;37888;-62
2022/05/12 09:04:02;;;;;;;;;;;18.70;86.40;;;;;;5076944;27;38297;-62
2022/05/12 09:06:32;;;;;;;;;;;18.60;84.30;;;;;;5080956;27;37360;-61
2022/05/12 09:09:01;;;;;;;;;;;18.70;83.80;;;;;;5081704;27;37199;-61
2022/05/12 09:11:31;;;;;;;;;;;18.50;76.70;;;;;;5080983;27;40142;-61
2022/05/12 09:14:00;;;;;;;;;;;18.50;81.40;;;;;;5080408;27;37578;-61
2022/05/12 09:16:29;;;;;;;;;;;18.60;81.20;;;;;;5078494;27;36012;-61
2022/05/12 09:18:57;;;;;;;;;;;18.80;79.30;;;;;;5079338;27;35219;-61
2022/05/12 09:21:26;;;;;;;;;;;18.70;77.40;;;;;;5079314;27;38308;-62
2022/05/12 09:23:54;;;;;;;;;;;18.60;73.60;;;;;;5081409;27;37992;-61
2022/05/12 09:26:34;;;;;;;;;;;18.50;75.30;;;;;;5080474;27;38713;-61
2022/05/12 09:29:16;;;;;;;;;;;18.40;76.60;;;;;;5080794;27;37030;-61
2022/05/12 09:31:44;;;;;;;;;;;18.50;81.50;;;;;;5079464;27;36463;-61
2022/05/12 09:34:17;;;;;;;;;;;18.60;83.50;;;;;;5081078;27;37584;-61
2022/05/12 09:36:44;;;;;;;;;;;19.00;80.50;;;;;;5079578;27;37237;-61
2022/05/12 09:39:12;;;;;;;;;;;19.30;80.30;;;;;;5081466;27;35109;-61
2022/05/12 09:41:40;;;;;;;;;;;19.60;77.90;;;;;;5081394;27;37869;-61
2022/05/12 09:44:15;;;;;;;;;;;19.90;79.20;;;;;;5081102;27;37839;-63
2022/05/12 09:46:42;;;;;;;;;;;20.20;76.20;;;;;;5079935;27;38623;-62
2022/05/12 09:49:18;;;;;;;;;;;20.30;72.30;;;;;;5081026;27;38242;-62
2022/05/12 09:51:46;;;;;;;;;;;20.40;72.20;;;;;;5080679;27;38233;-62
2022/05/12 09:54:15;;;;;;;;;;;20.40;70.50;;;;;;5079169;27;38409;-62
2022/05/12 09:56:46;;;;;;;;;;;20.30;71.70;;;;;;5079140;27;36794;-63
2022/05/12 09:59:21;;;;;;;;;;;20.40;71.30;;;;;;5078456;27;36603;-63
2022/05/12 10:01:50;;;;;;;;;;;20.50;72.60;;;;;;5078528;27;40666;-62
2022/05/12 10:09:53;;;;;;;;;;;21.00;69.40;;;;;;5092257;27;38224;-62
2022/05/12 10:12:23;;;;;;;;;;;21.00;67.10;;;;;;5092506;27;38352;-63
2022/05/12 10:14:51;;;;;;;;;;;21.10;66.90;;;;;;5093035;27;38914;-62
2022/05/12 10:17:23;;;;;;;;;;;21.00;58.90;;;;;;5090402;27;38463;-62
2022/05/12 10:19:52;;;;;;;;;;;20.70;59.20;;;;;;5091727;27;38948;-62
2022/05/12 10:22:23;;;;;;;;;;;20.40;62.00;;;;;;5090005;27;36181;-62
2022/05/12 10:24:58;;;;;;;;;;;20.30;58.40;;;;;;5090925;27;40225;-62
2022/05/12 10:27:29;;;;;;;;;;;20.10;61.70;;;;;;5091056;27;35807;-62
2022/05/12 10:30:01;;;;;;;;;;;20.00;63.60;;;;;;5090841;27;38592;-62
2022/05/12 10:32:36;;;;;;;;;;;20.10;69.70;;;;;;5090841;27;38296;-62
2022/05/12 10:35:09;;;;;;;;;;;20.20;66.30;;;;;;5090280;27;38618;-62
2022/05/12 10:37:41;;;;;;;;;;;20.40;66.70;;;;;;5089722;27;38902;-62
2022/05/12 10:40:16;;;;;;;;;;;20.70;67.50;;;;;;5090668;27;37134;-62
2022/05/12 10:42:53;;;;;;;;;;;20.90;68.60;;;;;;5090800;27;37804;-62
2022/05/12 10:45:23;;;;;;;;;;;21.10;65.70;;;;;;5090678;27;39475;-62
2022/05/12 10:47:59;;;;;;;;;;;21.20;62.00;;;;;;5090528;27;37804;-62
2022/05/12 10:50:29;;;;;;;;;;;21.00;60.20;;;;;;5091021;27;35936;-62
2022/05/12 10:53:02;;;;;;;;;;;20.90;59.50;;;;;;5091067;27;36587;-62
2022/05/12 10:55:35;;;;;;;;;;;21.00;62.50;;;;;;5090896;27;37723;-62
2022/05/12 10:58:19;;;;;;;;;;;21.10;63.40;;;;;;5091086;27;37088;-62
2022/05/12 11:00:53;;;;;;;;;;;21.20;60.70;;;;;;5090187;27;37255;-57
2022/05/12 11:03:21;;;;;;;;;;;21.30;58.10;;;;;;5085401;27;37828;-62
2022/05/12 11:05:52;;;;;;;;;;;21.30;60.20;;;;;;5087654;27;36598;-62
2022/05/12 11:08:20;;;;;;;;;;;21.40;62.00;;;;;;5089132;27;37312;-62
2022/05/12 11:10:49;;;;;;;;;;;21.40;60.20;;;;;;5089990;27;36409;-62
2022/05/12 11:13:20;;;;;;;;;;;21.50;59.10;;;;;;5089776;27;39058;-62
2022/05/12 11:15:50;;;;;;;;;;;21.50;56.90;;;;;;5089632;27;37690;-62
2022/05/12 11:18:20;;;;;;;;;;;21.50;58.60;;;;;;5089013;27;35952;-62
2022/05/12 11:20:53;;;;;;;;;;;21.50;58.60;;;;;;5088699;27;37364;-62
2022/05/12 11:23:38;;;;;;;;;;;21.30;57.60;;;;;;5089295;27;36383;-62
2022/05/12 11:26:09;;;;;;;;;;;21.00;57.20;;;;;;5089299;27;37746;-62
2022/05/12 11:31:28;;;;;;;;;;;20.70;54.00;;;;;;5087826;27;37301;-62
2022/05/12 11:33:56;;;;;;;;;;;20.30;55.00;;;;;;5086087;27;36662;-62
2022/05/12 11:36:36;;;;;;;;;;;20.10;59.20;;;;;;5087099;27;38824;-63
2022/05/12 11:39:20;;;;;;;;;;;20.20;63.50;;;;;;5086730;27;38138;-62
2022/05/12 11:41:48;;;;;;;;;;;20.40;64.00;;;;;;5088435;27;37790;-62
2022/05/12 11:44:38;;;;;;;;;;;20.60;62.70;;;;;;5089043;27;36359;-62
2022/05/12 11:47:23;;;;;;;;;;;20.70;59.80;;;;;;5090402;27;38319;-63
2022/05/12 11:49:59;;;;;;;;;;;20.70;61.20;;;;;;5088816;27;37209;-63
2022/05/12 11:52:34;;;;;;;;;;;20.70;63.10;;;;;;5088004;27;36163;-63
2022/05/12 11:55:06;;;;;;;;;;;20.50;60.60;;;;;;5088733;27;38623;-62
2022/05/12 11:57:37;;;;;;;;;;;20.40;64.50;;;;;;5089204;27;38487;-62
2022/05/12 12:00:08;;;;;;;;;;;20.50;64.90;;;;;;5089747;27;38116;-63
2022/05/12 12:02:41;;;;;;;;;;;20.50;61.10;;;;;;5089522;27;36905;-62
2022/05/12 12:05:10;;;;;;;;;;;20.50;61.90;;;;;;5089708;27;37421;-62
2022/05/12 12:07:57;;;;;;;;;;;20.50;63.00;;;;;;5089527;27;38841;-61
2022/05/12 12:10:37;;;;;;;;;;;20.40;60.90;;;;;;5088345;27;37245;-62
2022/05/12 12:13:07;;;;;;;;;;;20.30;60.40;;;;;;5090211;27;36422;-62
2022/05/12 12:15:40;;;;;;;;;;;20.20;60.80;;;;;;5089413;27;38196;-62
2022/05/12 12:18:25;;;;;;;;;;;20.10;61.30;;;;;;5090369;27;38171;-62
2022/05/12 12:20:54;;;;;;;;;;;20.20;65.50;;;;;;5088086;27;37918;-62
2022/05/12 12:23:23;;;;;;;;;;;20.30;62.80;;;;;;5091630;27;37140;-62
2022/05/12 12:25:57;;;;;;;;;;;20.20;62.30;;;;;;5090778;27;37552;-62
2022/05/12 12:28:27;;;;;;;;;;;20.20;66.00;;;;;;5091196;27;38720;-62
2022/05/12 12:31:03;;;;;;;;;;;20.30;65.60;;;;;;5092297;27;38123;-62
2022/05/12 12:33:51;;;;;;;;;;;20.40;63.70;;;;;;5089932;27;36562;-62
2022/05/12 12:36:34;;;;;;;;;;;20.40;60.60;;;;;;5089140;27;36949;-62
2022/05/12 12:39:05;;;;;;;;;;;20.50;60.80;;;;;;5089386;27;40561;-62
2022/05/12 12:41:38;;;;;;;;;;;20.50;59.80;;;;;;5094267;27;38029;-62
2022/05/12 12:44:09;;;;;;;;;;;20.50;59.50;;;;;;5094584;27;37032;-62
2022/05/12 12:46:38;;;;;;;;;;;20.50;59.80;;;;;;5093446;27;37975;-62
2022/05/12 12:49:10;;;;;;;;;;;20.30;58.70;;;;;;5094233;27;35755;-62
2022/05/12 12:51:38;;;;;;;;;;;20.10;56.70;;;;;;5094689;27;37687;-62
2022/05/12 12:57:06;;;;;;;;;;;19.70;60.10;;;;;;5095260;27;38994;-62
2022/05/12 12:59:35;;;;;;;;;;;19.70;61.80;;;;;;5094191;27;38804;-62
2022/05/12 13:02:03;;;;;;;;;;;19.60;60.20;;;;;;5093465;27;37168;-62
2022/05/12 13:04:31;;;;;;;;;;;19.60;58.30;;;;;;5091712;27;36136;-62
2022/05/12 13:06:59;;;;;;;;;;;19.50;58.20;;;;;;5092774;27;39975;-62
2022/05/12 13:09:27;;;;;;;;;;;19.50;61.30;;;;;;5093500;27;38728;-62
2022/05/12 13:12:09;;;;;;;;;;;19.50;59.20;;;;;;5093532;27;37481;-62
2022/05/12 13:14:37;;;;;;;;;;;19.40;58.80;;;;;;5094620;27;37134;-62
2022/05/12 13:17:05;;;;;;;;;;;19.30;59.50;;;;;;5092925;27;36756;-62
2022/05/12 13:19:34;;;;;;;;;;;19.30;60.90;;;;;;5092201;27;39713;-62
2022/05/12 13:22:01;;;;;;;;;;;19.40;61.20;;;;;;5093447;27;35947;-62
2022/05/12 13:24:31;;;;;;;;;;;19.40;60.90;;;;;;5094698;27;36172;-62
2022/05/12 13:26:59;;;;;;;;;;;19.30;58.60;;;;;;5093594;27;36543;-62
2022/05/12 13:29:29;;;;;;;;;;;19.30;59.40;;;;;;5094227;27;39106;-62
2022/05/12 13:32:00;;;;;;;;;;;19.20;57.00;;;;;;5093499;27;37965;-62
2022/05/12 13:34:28;;;;;;;;;;;19.20;58.60;;;;;;5092998;27;38527;-62
2022/05/12 13:36:58;;;;;;;;;;;19.20;58.00;;;;;;5092561;27;37704;-62
2022/05/12 13:39:41;;;;;;;;;;;19.10;58.80;;;;;;5093671;27;39043;-63
2022/05/12 13:42:08;;;;;;;;;;;19.00;59.20;;;;;;5093187;27;36039;-62
2022/05/12 13:44:37;;;;;;;;;;;19.10;61.40;;;;;;5093374;27;36039;-63
2022/05/12 13:47:06;;;;;;;;;;;19.10;60.00;;;;;;5093704;27;38581;-62
2022/05/12 13:49:35;;;;;;;;;;;19.20;61.10;;;;;;5092768;27;37747;-63
2022/05/12 13:52:15;;;;;;;;;;;19.20;59.60;;;;;;5092608;27;37071;-63
2022/05/12 13:55:01;;;;;;;;;;;19.10;58.60;;;;;;5093077;27;36906;-63
2022/05/12 13:57:31;;;;;;;;;;;19.00;59.20;;;;;;5093443;27;36481;-63
2022/05/12 14:00:00;;;;;;;;;;;18.90;60.70;;;;;;5093705;27;37977;-62
2022/05/12 14:02:33;;;;;;;;;;;18.80;59.80;;;;;;5092581;27;37204;-63
2022/05/12 14:05:06;;;;;;;;;;;18.70;60.40;;;;;;5092161;27;36509;-63
2022/05/12 14:07:34;;;;;;;;;;;18.60;63.20;;;;;;5093069;27;39802;-64
2022/05/12 14:10:14;;;;;;;;;;;18.70;61.90;;;;;;5090379;27;38726;-63
2022/05/12 14:20:56;;;;;;;;;;;18.40;63.00;;;;;;5093671;27;38912;-63
2022/05/12 14:23:23;;;;;;;;;;;18.40;63.50;;;;;;5093356;27;36016;-62
2022/05/12 14:25:50;;;;;;;;;;;18.50;64.10;;;;;;5093110;27;36875;-63
2022/05/12 14:28:17;;;;;;;;;;;18.60;65.70;;;;;;5093631;27;36540;-63
2022/05/12 14:30:46;;;;;;;;;;;18.60;65.20;;;;;;5092703;27;39892;-63
2022/05/12 14:33:13;;;;;;;;;;;18.70;65.30;;;;;;5091242;27;36617;-63
2022/05/12 14:35:42;;;;;;;;;;;18.60;62.50;;;;;;5092747;27;36845;-63
2022/05/12 14:38:09;;;;;;;;;;;18.60;62.20;;;;;;5093787;27;39924;-63
2022/05/12 14:40:36;;;;;;;;;;;18.50;62.40;;;;;;5090976;27;38626;-63
2022/05/12 14:43:03;;;;;;;;;;;18.50;63.10;;;;;;5091945;27;37339;-62
2022/05/12 14:45:30;;;;;;;;;;;18.50;64.20;;;;;;5093275;27;35086;-57
2022/05/12 14:48:00;;;;;;;;;;;18.50;64.70;;;;;;5090312;27;37574;-57
2022/05/12 14:50:27;;;;;;;;;;;18.50;66.70;;;;;;5093576;27;36619;-57
2022/05/12 14:52:57;;;;;;;;;;;18.60;63.00;;;;;;5092166;27;35877;-56
2022/05/12 14:55:24;;;;;;;;;;;18.50;64.30;;;;;;5092870;27;37742;-57
2022/05/12 14:57:51;;;;;;;;;;;18.50;65.20;;;;;;5092472;27;37404;-62
2022/05/12 15:00:19;;;;;;;;;;;18.60;68.10;;;;;;5092638;27;36751;-62
2022/05/12 15:02:46;;;;;;;;;;;18.50;66.90;;;;;;5091194;27;37040;-63